Aérodrome :
LOGIN :

S'inscrire | Disclaimer

   EN    FR    IT 

 










Légende :    VFR   VFR Marginal   IFR   IFR Intensif   IFR Très Intensif
Visi : 
Plafond : 
>= 8 km
>= 3000ft
5 à 8 km
1000 à 3000 ft
1500m à 5 km
500 à 1000 ft
800 à 1500m
200 à 500 ft
< 800m
< 200 ft
Symboles :   Orages  Brouillard  Fortes neiges  Fortes précipitations  Vent > 20 kt
SIGMETs :   Divers  Orages  Givrage  Turbulence  Onde Orograph.  Cendres Volcan.







- Altitude de l'aérodrome : 242 ft
- Code IATA : DUB


EIDW - Dublin

METARs EXPIRÉS :
  • 241430Z 28017KT 9999 FEW030 19/10 Q1011 NOSIG
  • 241400Z 28016KT 250V310 9999 FEW025 20/10 Q1011 NOSIG
  • 241330Z 29016KT 250V310 9999 FEW025 19/11 Q1011 NOSIG
  • 241300Z 27015KT 9999 FEW025 SCT045 19/11 Q1011 NOSIG
  • 241230Z 27016KT 250V310 9999 SCT022 20/11 Q1011 NOSIG
  • 241200Z 30013KT 9999 FEW016 BKN024 BKN040 17/13 Q1011 NOSIG

TAF TAF EIDW
Valide du 24 à 12h jusqu'au 25 à 12h UTC


241100Z 2412/2512 26015KT 9999 FEW012 BKN035
TEMPO 2412/2417 27015G25KT
BECMG 2417/2419 26012KT
BECMG 2503/2506 24006KT
PROB30
TEMPO 2505/2507 5000 -RADZ BKN010
BECMG 2510/2512 29012KT
Pas de NOTAMs connus pour ce terrain.



MET'MAP, la Météo Aéronautique d'un coup d'oeil ! - Copyright ORBIFLY Décembre 2007 - Disclaimer

ORBIFLY MET'MAP TEAM :

Programmation & Développement : Alexandra Zaïnal
Conception & Développement : Baudouin d'Aumeries
Co-Programmation & Développement : Marc-Olivier Méhu
Soutien technique & logistique : Manuel Goepfert

Contact : metmap@orbifly.com




SOURCES & CREDITS :

   NOAA